sensor_id;sensor_type;location;lat;lon;timestamp;temperature;humidity
1359;DHT22;673;48.098;14.422;2023-02-24T00:00:03;7.70;99.90
1359;DHT22;673;48.098;14.422;2023-02-24T00:02:59;7.70;99.90
1359;DHT22;673;48.098;14.422;2023-02-24T00:05:35;7.70;99.90
1359;DHT22;673;48.098;14.422;2023-02-24T00:08:03;7.60;99.90
1359;DHT22;673;48.098;14.422;2023-02-24T00:10:31;7.60;99.90
1359;DHT22;673;48.098;14.422;2023-02-24T00:12:58;7.60;99.90
1359;DHT22;673;48.098;14.422;2023-02-24T00:15:26;7.50;99.90
1359;DHT22;673;48.098;14.422;2023-02-24T00:17:53;7.50;99.90
1359;DHT22;673;48.098;14.422;2023-02-24T00:20:21;7.60;99.90
1359;DHT22;673;48.098;14.422;2023-02-24T00:22:48;7.50;99.90
1359;DHT22;673;48.098;14.422;2023-02-24T00:25:15;7.50;99.90
1359;DHT22;673;48.098;14.422;2023-02-24T00:27:42;7.40;99.90
1359;DHT22;673;48.098;14.422;2023-02-24T00:30:10;7.40;99.90
1359;DHT22;673;48.098;14.422;2023-02-24T00:32:37;7.30;99.90
1359;DHT22;673;48.098;14.422;2023-02-24T00:35:05;7.30;99.90
1359;DHT22;673;48.098;14.422;2023-02-24T00:37:35;7.30;99.90
1359;DHT22;673;48.098;14.422;2023-02-24T00:40:02;7.30;99.90
1359;DHT22;673;48.098;14.422;2023-02-24T00:42:36;7.20;99.90
1359;DHT22;673;48.098;14.422;2023-02-24T00:45:05;7.20;99.90
1359;DHT22;673;48.098;14.422;2023-02-24T00:47:36;7.20;99.90
1359;DHT22;673;48.098;14.422;2023-02-24T00:50:05;7.10;99.90
1359;DHT22;673;48.098;14.422;2023-02-24T00:52:34;7.10;99.90
1359;DHT22;673;48.098;14.422;2023-02-24T00:55:02;7.10;99.90
1359;DHT22;673;48.098;14.422;2023-02-24T00:57:38;7.00;99.90
1359;DHT22;673;48.098;14.422;2023-02-24T01:00:07;7.00;99.90
1359;DHT22;673;48.098;14.422;2023-02-24T01:02:39;7.10;99.90
1359;DHT22;673;48.098;14.422;2023-02-24T01:05:07;7.10;99.90
1359;DHT22;673;48.098;14.422;2023-02-24T01:07:36;7.10;99.90
1359;DHT22;673;48.098;14.422;2023-02-24T01:10:03;7.20;99.90
1359;DHT22;673;48.098;14.422;2023-02-24T01:12:33;7.20;99.90
1359;DHT22;673;48.098;14.422;2023-02-24T01:15:14;7.20;99.90
1359;DHT22;673;48.098;14.422;2023-02-24T01:17:42;7.30;99.90
1359;DHT22;673;48.098;14.422;2023-02-24T01:20:10;7.40;99.90
1359;DHT22;673;48.098;14.422;2023-02-24T01:22:44;7.40;99.90
1359;DHT22;673;48.098;14.422;2023-02-24T01:25:11;7.30;99.90
1359;DHT22;673;48.098;14.422;2023-02-24T01:27:38;7.30;99.90
1359;DHT22;673;48.098;14.422;2023-02-24T01:30:07;7.30;99.90
1359;DHT22;673;48.098;14.422;2023-02-24T01:32:38;7.20;99.90
1359;DHT22;673;48.098;14.422;2023-02-24T01:35:06;7.20;99.90
1359;DHT22;673;48.098;14.422;2023-02-24T01:37:34;7.10;99.90
1359;DHT22;673;48.098;14.422;2023-02-24T01:40:02;7.10;99.90
1359;DHT22;673;48.098;14.422;2023-02-24T01:42:42;7.00;99.90
1359;DHT22;673;48.098;14.422;2023-02-24T01:45:20;7.00;99.90
1359;DHT22;673;48.098;14.422;2023-02-24T01:47:47;7.00;99.90
1359;DHT22;673;48.098;14.422;2023-02-24T01:50:17;7.10;99.90
1359;DHT22;673;48.098;14.422;2023-02-24T01:52:47;7.10;99.90
1359;DHT22;673;48.098;14.422;2023-02-24T01:55:19;7.10;99.90
1359;DHT22;673;48.098;14.422;2023-02-24T01:57:50;7.00;99.90
1359;DHT22;673;48.098;14.422;2023-02-24T02:00:19;7.00;99.90
1359;DHT22;673;48.098;14.422;2023-02-24T02:03:08;7.00;99.90
1359;DHT22;673;48.098;14.422;2023-02-24T02:05:37;7.00;99.90
1359;DHT22;673;48.098;14.422;2023-02-24T02:08:05;6.90;99.90
1359;DHT22;673;48.098;14.422;2023-02-24T02:10:36;6.90;99.90
1359;DHT22;673;48.098;14.422;2023-02-24T02:13:04;6.90;99.90
1359;DHT22;673;48.098;14.422;2023-02-24T02:15:40;6.90;99.90
1359;DHT22;673;48.098;14.422;2023-02-24T02:18:14;6.90;99.90
1359;DHT22;673;48.098;14.422;2023-02-24T02:23:58;6.90;99.90
1359;DHT22;673;48.098;14.422;2023-02-24T02:30:03;6.70;99.90
1359;DHT22;673;48.098;14.422;2023-02-24T02:32:44;6.60;99.90
1359;DHT22;673;48.098;14.422;2023-02-24T02:35:21;6.70;99.90
1359;DHT22;673;48.098;14.422;2023-02-24T02:37:53;6.80;99.90
1359;DHT22;673;48.098;14.422;2023-02-24T02:40:27;6.80;99.90
1359;DHT22;673;48.098;14.422;2023-02-24T02:43:00;6.90;99.90
1359;DHT22;673;48.098;14.422;2023-02-24T02:45:33;7.00;99.90
1359;DHT22;673;48.098;14.422;2023-02-24T02:48:03;6.90;99.90
1359;DHT22;673;48.098;14.422;2023-02-24T02:50:37;6.90;99.90
1359;DHT22;673;48.098;14.422;2023-02-24T02:53:10;7.00;99.90
1359;DHT22;673;48.098;14.422;2023-02-24T02:55:41;7.00;99.90
1359;DHT22;673;48.098;14.422;2023-02-24T02:58:14;6.90;99.90
1359;DHT22;673;48.098;14.422;2023-02-24T03:00:46;6.80;99.90
1359;DHT22;673;48.098;14.422;2023-02-24T03:03:24;6.70;99.90
1359;DHT22;673;48.098;14.422;2023-02-24T03:05:57;6.70;99.90
1359;DHT22;673;48.098;14.422;2023-02-24T03:08:28;6.80;99.90
1359;DHT22;673;48.098;14.422;2023-02-24T03:10:57;6.80;99.90
1359;DHT22;673;48.098;14.422;2023-02-24T03:13:26;6.80;99.90
1359;DHT22;673;48.098;14.422;2023-02-24T03:15:58;6.90;99.90
1359;DHT22;673;48.098;14.422;2023-02-24T03:18:30;6.80;99.90
1359;DHT22;673;48.098;14.422;2023-02-24T03:21:04;6.80;99.90
1359;DHT22;673;48.098;14.422;2023-02-24T03:23:36;6.80;99.90
1359;DHT22;673;48.098;14.422;2023-02-24T03:26:10;6.80;99.90
1359;DHT22;673;48.098;14.422;2023-02-24T03:28:51;6.90;99.90
1359;DHT22;673;48.098;14.422;2023-02-24T03:31:22;6.90;99.90
1359;DHT22;673;48.098;14.422;2023-02-24T03:33:58;7.00;99.90
1359;DHT22;673;48.098;14.422;2023-02-24T03:36:29;7.10;99.90
1359;DHT22;673;48.098;14.422;2023-02-24T03:38:57;7.10;99.90
1359;DHT22;673;48.098;14.422;2023-02-24T03:41:29;7.10;99.90
1359;DHT22;673;48.098;14.422;2023-02-24T03:43:58;7.20;99.90
1359;DHT22;673;48.098;14.422;2023-02-24T03:46:26;7.00;99.90
1359;DHT22;673;48.098;14.422;2023-02-24T03:49:05;7.10;99.90
1359;DHT22;673;48.098;14.422;2023-02-24T03:51:39;7.10;99.90
1359;DHT22;673;48.098;14.422;2023-02-24T03:54:20;7.00;99.90
1359;DHT22;673;48.098;14.422;2023-02-24T03:57:03;6.90;99.90
1359;DHT22;673;48.098;14.422;2023-02-24T03:59:41;6.90;99.90
1359;DHT22;673;48.098;14.422;2023-02-24T04:02:16;6.90;99.90
1359;DHT22;673;48.098;14.422;2023-02-24T04:04:50;6.90;99.90
1359;DHT22;673;48.098;14.422;2023-02-24T04:07:32;7.00;99.90
1359;DHT22;673;48.098;14.422;2023-02-24T04:10:06;7.00;99.90
1359;DHT22;673;48.098;14.422;2023-02-24T04:12:40;6.90;99.90
1359;DHT22;673;48.098;14.422;2023-02-24T04:15:11;6.90;99.90
1359;DHT22;673;48.098;14.422;2023-02-24T04:17:43;6.90;99.90
1359;DHT22;673;48.098;14.422;2023-02-24T04:20:13;6.80;99.90
1359;DHT22;673;48.098;14.422;2023-02-24T04:22:46;6.70;99.90
1359;DHT22;673;48.098;14.422;2023-02-24T04:25:16;6.60;99.90
1359;DHT22;673;48.098;14.422;2023-02-24T04:27:45;6.50;99.90
1359;DHT22;673;48.098;14.422;2023-02-24T04:30:13;6.30;99.90
1359;DHT22;673;48.098;14.422;2023-02-24T04:32:40;6.20;99.90
1359;DHT22;673;48.098;14.422;2023-02-24T04:35:11;6.10;99.90
1359;DHT22;673;48.098;14.422;2023-02-24T04:37:39;6.10;99.90
1359;DHT22;673;48.098;14.422;2023-02-24T04:40:12;6.00;99.90
1359;DHT22;673;48.098;14.422;2023-02-24T04:42:41;5.90;99.90
1359;DHT22;673;48.098;14.422;2023-02-24T04:45:14;5.90;99.90
1359;DHT22;673;48.098;14.422;2023-02-24T04:47:42;5.90;99.90
1359;DHT22;673;48.098;14.422;2023-02-24T04:50:15;5.90;99.90
1359;DHT22;673;48.098;14.422;2023-02-24T04:52:49;5.90;99.90
1359;DHT22;673;48.098;14.422;2023-02-24T04:55:18;5.80;99.90
1359;DHT22;673;48.098;14.422;2023-02-24T04:57:47;5.70;99.90
1359;DHT22;673;48.098;14.422;2023-02-24T05:00:15;5.60;99.90
1359;DHT22;673;48.098;14.422;2023-02-24T05:02:52;5.50;99.90
1359;DHT22;673;48.098;14.422;2023-02-24T05:05:20;5.40;99.90
1359;DHT22;673;48.098;14.422;2023-02-24T05:07:50;5.40;99.90
1359;DHT22;673;48.098;14.422;2023-02-24T05:10:19;5.20;99.90
1359;DHT22;673;48.098;14.422;2023-02-24T05:12:46;5.20;99.90
1359;DHT22;673;48.098;14.422;2023-02-24T05:15:13;5.20;99.90
1359;DHT22;673;48.098;14.422;2023-02-24T05:17:40;5.30;99.90
1359;DHT22;673;48.098;14.422;2023-02-24T05:20:08;5.30;99.90
1359;DHT22;673;48.098;14.422;2023-02-24T05:22:53;5.30;99.90
1359;DHT22;673;48.098;14.422;2023-02-24T05:25:22;5.30;99.90
1359;DHT22;673;48.098;14.422;2023-02-24T05:27:51;5.30;99.90
1359;DHT22;673;48.098;14.422;2023-02-24T05:30:17;5.30;99.90
1359;DHT22;673;48.098;14.422;2023-02-24T05:32:45;5.30;99.90
1359;DHT22;673;48.098;14.422;2023-02-24T05:35:12;5.20;99.90
1359;DHT22;673;48.098;14.422;2023-02-24T05:37:39;5.20;99.90
1359;DHT22;673;48.098;14.422;2023-02-24T05:40:09;5.30;99.90
1359;DHT22;673;48.098;14.422;2023-02-24T05:42:40;5.30;99.90
1359;DHT22;673;48.098;14.422;2023-02-24T05:45:10;5.30;99.90
1359;DHT22;673;48.098;14.422;2023-02-24T05:47:37;5.40;99.90
1359;DHT22;673;48.098;14.422;2023-02-24T05:50:06;5.40;99.90
1359;DHT22;673;48.098;14.422;2023-02-24T05:52:34;5.50;99.90
1359;DHT22;673;48.098;14.422;2023-02-24T05:55:03;5.60;99.90
1359;DHT22;673;48.098;14.422;2023-02-24T05:57:32;5.60;99.90
1359;DHT22;673;48.098;14.422;2023-02-24T06:00:03;5.50;99.90
1359;DHT22;673;48.098;14.422;2023-02-24T06:02:38;5.60;99.90
1359;DHT22;673;48.098;14.422;2023-02-24T06:05:17;5.60;99.90
1359;DHT22;673;48.098;14.422;2023-02-24T06:07:56;5.70;99.90
1359;DHT22;673;48.098;14.422;2023-02-24T06:10:31;5.70;99.90
1359;DHT22;673;48.098;14.422;2023-02-24T06:13:00;5.80;99.90
1359;DHT22;673;48.098;14.422;2023-02-24T06:15:28;5.90;99.90
1359;DHT22;673;48.098;14.422;2023-02-24T06:17:56;5.90;99.90
1359;DHT22;673;48.098;14.422;2023-02-24T06:20:26;5.90;99.90
1359;DHT22;673;48.098;14.422;2023-02-24T06:22:54;6.10;99.90
1359;DHT22;673;48.098;14.422;2023-02-24T06:25:23;6.10;99.90
1359;DHT22;673;48.098;14.422;2023-02-24T06:27:51;6.20;99.90
1359;DHT22;673;48.098;14.422;2023-02-24T06:30:20;6.20;99.90
1359;DHT22;673;48.098;14.422;2023-02-24T06:32:49;6.30;99.90
1359;DHT22;673;48.098;14.422;2023-02-24T06:35:17;6.30;99.90
1359;DHT22;673;48.098;14.422;2023-02-24T06:37:44;6.30;99.90
1359;DHT22;673;48.098;14.422;2023-02-24T06:40:12;6.30;99.90
1359;DHT22;673;48.098;14.422;2023-02-24T06:42:45;6.30;99.90
1359;DHT22;673;48.098;14.422;2023-02-24T06:45:13;6.30;99.90
1359;DHT22;673;48.098;14.422;2023-02-24T06:47:41;6.40;99.90
1359;DHT22;673;48.098;14.422;2023-02-24T06:50:10;6.50;99.90
1359;DHT22;673;48.098;14.422;2023-02-24T06:52:38;6.60;99.90
1359;DHT22;673;48.098;14.422;2023-02-24T06:55:06;6.60;99.90
1359;DHT22;673;48.098;14.422;2023-02-24T06:57:50;6.80;99.90
1359;DHT22;673;48.098;14.422;2023-02-24T07:00:22;6.90;99.90
1359;DHT22;673;48.098;14.422;2023-02-24T07:03:02;7.00;99.90
1359;DHT22;673;48.098;14.422;2023-02-24T07:05:41;6.90;99.90
1359;DHT22;673;48.098;14.422;2023-02-24T07:08:14;6.90;99.90
1359;DHT22;673;48.098;14.422;2023-02-24T07:10:42;6.80;99.90
1359;DHT22;673;48.098;14.422;2023-02-24T07:13:09;6.90;99.90
1359;DHT22;673;48.098;14.422;2023-02-24T07:15:38;6.90;99.90
1359;DHT22;673;48.098;14.422;2023-02-24T07:18:05;6.90;99.90
1359;DHT22;673;48.098;14.422;2023-02-24T07:20:40;6.80;99.90
1359;DHT22;673;48.098;14.422;2023-02-24T07:23:11;6.80;99.90
1359;DHT22;673;48.098;14.422;2023-02-24T07:25:37;6.80;99.90
1359;DHT22;673;48.098;14.422;2023-02-24T07:28:06;6.90;99.90
1359;DHT22;673;48.098;14.422;2023-02-24T07:30:33;7.10;99.90
1359;DHT22;673;48.098;14.422;2023-02-24T07:33:01;7.10;99.90
1359;DHT22;673;48.098;14.422;2023-02-24T07:35:29;7.10;99.90
1359;DHT22;673;48.098;14.422;2023-02-24T07:37:58;7.10;99.90
1359;DHT22;673;48.098;14.422;2023-02-24T07:40:26;7.20;99.90
1359;DHT22;673;48.098;14.422;2023-02-24T07:42:54;7.20;99.90
1359;DHT22;673;48.098;14.422;2023-02-24T07:45:22;7.30;99.90
1359;DHT22;673;48.098;14.422;2023-02-24T07:47:49;7.40;99.90
1359;DHT22;673;48.098;14.422;2023-02-24T07:50:16;7.50;99.90
1359;DHT22;673;48.098;14.422;2023-02-24T07:52:44;7.50;99.90
1359;DHT22;673;48.098;14.422;2023-02-24T07:55:13;7.70;99.90
1359;DHT22;673;48.098;14.422;2023-02-24T07:57:41;7.80;99.90
1359;DHT22;673;48.098;14.422;2023-02-24T08:00:13;7.90;99.90
1359;DHT22;673;48.098;14.422;2023-02-24T08:02:44;8.10;99.90
1359;DHT22;673;48.098;14.422;2023-02-24T08:05:12;8.10;99.90
1359;DHT22;673;48.098;14.422;2023-02-24T08:07:39;8.30;99.90
1359;DHT22;673;48.098;14.422;2023-02-24T08:10:08;8.60;99.90
1359;DHT22;673;48.098;14.422;2023-02-24T08:12:40;8.80;99.90
1359;DHT22;673;48.098;14.422;2023-02-24T08:15:12;8.90;99.90
1359;DHT22;673;48.098;14.422;2023-02-24T08:17:48;9.00;99.90
1359;DHT22;673;48.098;14.422;2023-02-24T08:20:18;9.20;99.90
1359;DHT22;673;48.098;14.422;2023-02-24T08:22:51;9.40;99.90
1359;DHT22;673;48.098;14.422;2023-02-24T08:25:20;9.50;99.90
1359;DHT22;673;48.098;14.422;2023-02-24T08:27:50;9.60;99.90
1359;DHT22;673;48.098;14.422;2023-02-24T08:30:22;9.60;99.90
1359;DHT22;673;48.098;14.422;2023-02-24T08:32:51;9.50;99.90
1359;DHT22;673;48.098;14.422;2023-02-24T08:35:24;9.50;99.90
1359;DHT22;673;48.098;14.422;2023-02-24T08:37:59;9.60;99.90
1359;DHT22;673;48.098;14.422;2023-02-24T08:40:30;9.60;99.90
1359;DHT22;673;48.098;14.422;2023-02-24T08:43:07;9.80;99.90
1359;DHT22;673;48.098;14.422;2023-02-24T08:45:46;9.80;99.90
1359;DHT22;673;48.098;14.422;2023-02-24T08:48:19;9.80;99.90
1359;DHT22;673;48.098;14.422;2023-02-24T08:50:58;9.80;99.90
1359;DHT22;673;48.098;14.422;2023-02-24T08:53:25;10.10;99.90
1359;DHT22;673;48.098;14.422;2023-02-24T08:55:57;10.10;99.90
1359;DHT22;673;48.098;14.422;2023-02-24T08:58:26;10.30;99.90
1359;DHT22;673;48.098;14.422;2023-02-24T09:00:53;10.40;99.90
1359;DHT22;673;48.098;14.422;2023-02-24T09:03:24;10.50;99.90
1359;DHT22;673;48.098;14.422;2023-02-24T09:05:58;10.60;99.90
1359;DHT22;673;48.098;14.422;2023-02-24T09:08:26;10.70;99.90
1359;DHT22;673;48.098;14.422;2023-02-24T09:10:58;10.80;99.90
1359;DHT22;673;48.098;14.422;2023-02-24T09:13:27;11.00;99.90
1359;DHT22;673;48.098;14.422;2023-02-24T09:15:59;11.20;99.90
1359;DHT22;673;48.098;14.422;2023-02-24T09:18:26;11.20;99.90
1359;DHT22;673;48.098;14.422;2023-02-24T09:21:07;11.10;99.90
1359;DHT22;673;48.098;14.422;2023-02-24T09:23:58;11.40;99.90
1359;DHT22;673;48.098;14.422;2023-02-24T09:26:28;11.40;99.90
1359;DHT22;673;48.098;14.422;2023-02-24T09:28:59;11.30;99.90
1359;DHT22;673;48.098;14.422;2023-02-24T09:31:36;11.30;99.90
1359;DHT22;673;48.098;14.422;2023-02-24T09:34:19;11.50;99.90
1359;DHT22;673;48.098;14.422;2023-02-24T09:36:54;11.40;99.90
1359;DHT22;673;48.098;14.422;2023-02-24T09:39:29;11.30;99.90
1359;DHT22;673;48.098;14.422;2023-02-24T09:42:18;11.60;99.90
1359;DHT22;673;48.098;14.422;2023-02-24T09:45:02;11.40;99.90
1359;DHT22;673;48.098;14.422;2023-02-24T09:47:34;11.60;99.90
1359;DHT22;673;48.098;14.422;2023-02-24T09:50:20;11.70;99.90
1359;DHT22;673;48.098;14.422;2023-02-24T09:52:56;11.60;99.90
1359;DHT22;673;48.098;14.422;2023-02-24T09:55:43;11.60;99.90
1359;DHT22;673;48.098;14.422;2023-02-24T09:58:29;11.40;99.90
1359;DHT22;673;48.098;14.422;2023-02-24T10:01:05;11.30;99.90
1359;DHT22;673;48.098;14.422;2023-02-24T10:03:50;11.50;99.90
1359;DHT22;673;48.098;14.422;2023-02-24T10:06:30;11.50;99.90
1359;DHT22;673;48.098;14.422;2023-02-24T10:09:05;11.40;99.90
1359;DHT22;673;48.098;14.422;2023-02-24T10:11:38;11.60;99.90
1359;DHT22;673;48.098;14.422;2023-02-24T10:14:20;11.50;99.90
1359;DHT22;673;48.098;14.422;2023-02-24T10:16:50;11.50;99.90
1359;DHT22;673;48.098;14.422;2023-02-24T10:19:45;11.80;99.90
1359;DHT22;673;48.098;14.422;2023-02-24T10:22:24;12.00;99.90
1359;DHT22;673;48.098;14.422;2023-02-24T10:24:59;12.10;99.90
1359;DHT22;673;48.098;14.422;2023-02-24T10:27:53;12.10;99.90
1359;DHT22;673;48.098;14.422;2023-02-24T10:30:43;12.20;99.90
1359;DHT22;673;48.098;14.422;2023-02-24T10:33:18;12.30;99.90
1359;DHT22;673;48.098;14.422;2023-02-24T10:35:50;12.10;99.90
1359;DHT22;673;48.098;14.422;2023-02-24T10:38:19;12.00;99.90
1359;DHT22;673;48.098;14.422;2023-02-24T10:40:48;12.00;99.90
1359;DHT22;673;48.098;14.422;2023-02-24T10:43:23;11.90;99.90
1359;DHT22;673;48.098;14.422;2023-02-24T10:45:57;11.70;99.90
1359;DHT22;673;48.098;14.422;2023-02-24T10:48:32;11.50;99.90
1359;DHT22;673;48.098;14.422;2023-02-24T10:51:10;11.50;99.90
1359;DHT22;673;48.098;14.422;2023-02-24T10:53:46;11.50;99.90
1359;DHT22;673;48.098;14.422;2023-02-24T10:56:19;11.80;99.90
1359;DHT22;673;48.098;14.422;2023-02-24T10:59:00;11.90;99.90
1359;DHT22;673;48.098;14.422;2023-02-24T11:01:42;11.90;99.90
1359;DHT22;673;48.098;14.422;2023-02-24T11:04:21;12.10;99.90
1359;DHT22;673;48.098;14.422;2023-02-24T11:07:11;12.30;99.90
1359;DHT22;673;48.098;14.422;2023-02-24T11:10:00;12.20;99.90
1359;DHT22;673;48.098;14.422;2023-02-24T11:12:37;12.20;99.90
1359;DHT22;673;48.098;14.422;2023-02-24T11:15:29;12.30;99.90
1359;DHT22;673;48.098;14.422;2023-02-24T11:18:18;12.30;99.90
1359;DHT22;673;48.098;14.422;2023-02-24T11:20:51;12.10;99.90
1359;DHT22;673;48.098;14.422;2023-02-24T11:23:22;12.00;99.90
1359;DHT22;673;48.098;14.422;2023-02-24T11:25:52;12.20;99.90
1359;DHT22;673;48.098;14.422;2023-02-24T11:28:36;12.30;99.90
1359;DHT22;673;48.098;14.422;2023-02-24T11:31:14;12.60;99.90
1359;DHT22;673;48.098;14.422;2023-02-24T11:33:51;12.60;99.90
1359;DHT22;673;48.098;14.422;2023-02-24T11:36:27;12.50;99.90
1359;DHT22;673;48.098;14.422;2023-02-24T11:39:04;12.30;99.90
1359;DHT22;673;48.098;14.422;2023-02-24T11:41:37;12.40;99.90
1359;DHT22;673;48.098;14.422;2023-02-24T11:44:21;12.40;99.90
1359;DHT22;673;48.098;14.422;2023-02-24T11:46:53;12.50;99.90
1359;DHT22;673;48.098;14.422;2023-02-24T11:49:26;12.50;99.90
1359;DHT22;673;48.098;14.422;2023-02-24T11:51:58;12.50;99.90
1359;DHT22;673;48.098;14.422;2023-02-24T11:54:34;12.60;99.90
1359;DHT22;673;48.098;14.422;2023-02-24T11:57:04;12.50;99.90
1359;DHT22;673;48.098;14.422;2023-02-24T11:59:39;12.50;99.90
1359;DHT22;673;48.098;14.422;2023-02-24T12:02:14;12.50;99.90
1359;DHT22;673;48.098;14.422;2023-02-24T12:04:50;12.50;99.90
1359;DHT22;673;48.098;14.422;2023-02-24T12:07:26;12.30;99.90
1359;DHT22;673;48.098;14.422;2023-02-24T12:10:00;12.20;99.90
1359;DHT22;673;48.098;14.422;2023-02-24T12:12:33;12.20;99.90
1359;DHT22;673;48.098;14.422;2023-02-24T12:15:08;12.10;99.90
1359;DHT22;673;48.098;14.422;2023-02-24T12:17:41;11.80;99.90
1359;DHT22;673;48.098;14.422;2023-02-24T12:20:19;11.80;99.90
1359;DHT22;673;48.098;14.422;2023-02-24T12:22:51;11.50;99.90
1359;DHT22;673;48.098;14.422;2023-02-24T12:25:24;11.40;99.90
1359;DHT22;673;48.098;14.422;2023-02-24T12:28:04;11.20;99.90
1359;DHT22;673;48.098;14.422;2023-02-24T12:30:50;11.10;99.90
1359;DHT22;673;48.098;14.422;2023-02-24T12:33:44;11.20;99.90
1359;DHT22;673;48.098;14.422;2023-02-24T12:36:22;11.30;99.90
1359;DHT22;673;48.098;14.422;2023-02-24T12:38:59;11.20;99.90
1359;DHT22;673;48.098;14.422;2023-02-24T12:41:49;11.20;99.90
1359;DHT22;673;48.098;14.422;2023-02-24T12:44:26;11.20;99.90
1359;DHT22;673;48.098;14.422;2023-02-24T12:47:03;11.10;99.90
1359;DHT22;673;48.098;14.422;2023-02-24T12:52:44;11.20;99.90
1359;DHT22;673;48.098;14.422;2023-02-24T12:55:19;11.30;99.90
1359;DHT22;673;48.098;14.422;2023-02-24T12:57:54;11.40;99.90
1359;DHT22;673;48.098;14.422;2023-02-24T13:00:30;11.30;99.90
1359;DHT22;673;48.098;14.422;2023-02-24T13:03:05;11.50;99.90
1359;DHT22;673;48.098;14.422;2023-02-24T13:05:41;11.60;99.90
1359;DHT22;673;48.098;14.422;2023-02-24T13:08:20;11.40;99.90
1359;DHT22;673;48.098;14.422;2023-02-24T13:10:57;11.20;99.90
1359;DHT22;673;48.098;14.422;2023-02-24T13:13:31;11.10;99.90
1359;DHT22;673;48.098;14.422;2023-02-24T13:16:00;11.10;99.90
1359;DHT22;673;48.098;14.422;2023-02-24T13:18:29;11.20;99.90
1359;DHT22;673;48.098;14.422;2023-02-24T13:21:04;11.20;99.90
1359;DHT22;673;48.098;14.422;2023-02-24T13:23:32;11.30;99.90
1359;DHT22;673;48.098;14.422;2023-02-24T13:26:02;11.40;99.90
1359;DHT22;673;48.098;14.422;2023-02-24T13:28:31;11.50;99.90
1359;DHT22;673;48.098;14.422;2023-02-24T13:31:02;11.50;99.90
1359;DHT22;673;48.098;14.422;2023-02-24T13:33:32;11.50;99.90
1359;DHT22;673;48.098;14.422;2023-02-24T13:36:23;11.40;99.90
1359;DHT22;673;48.098;14.422;2023-02-24T13:39:03;11.50;99.90
1359;DHT22;673;48.098;14.422;2023-02-24T13:41:38;11.60;99.90
1359;DHT22;673;48.098;14.422;2023-02-24T13:44:25;11.60;99.90
1359;DHT22;673;48.098;14.422;2023-02-24T13:47:23;11.80;99.90
1359;DHT22;673;48.098;14.422;2023-02-24T13:50:04;11.70;99.90
1359;DHT22;673;48.098;14.422;2023-02-24T13:52:45;11.80;99.90
1359;DHT22;673;48.098;14.422;2023-02-24T13:55:28;11.80;99.90
1359;DHT22;673;48.098;14.422;2023-02-24T14:01:05;11.60;99.90
1359;DHT22;673;48.098;14.422;2023-02-24T14:03:33;11.60;99.90
1359;DHT22;673;48.098;14.422;2023-02-24T14:06:02;11.60;99.90
1359;DHT22;673;48.098;14.422;2023-02-24T14:08:36;11.60;99.90
1359;DHT22;673;48.098;14.422;2023-02-24T14:11:06;11.60;99.90
1359;DHT22;673;48.098;14.422;2023-02-24T14:13:36;11.50;99.90
1359;DHT22;673;48.098;14.422;2023-02-24T14:16:07;11.30;99.90
1359;DHT22;673;48.098;14.422;2023-02-24T14:18:35;11.20;99.90
1359;DHT22;673;48.098;14.422;2023-02-24T14:21:03;11.40;99.90
1359;DHT22;673;48.098;14.422;2023-02-24T14:23:31;11.60;99.90
1359;DHT22;673;48.098;14.422;2023-02-24T14:26:00;11.70;99.90
1359;DHT22;673;48.098;14.422;2023-02-24T14:28:29;11.80;99.90
1359;DHT22;673;48.098;14.422;2023-02-24T14:31:01;11.80;99.90
1359;DHT22;673;48.098;14.422;2023-02-24T14:33:32;11.70;99.90
1359;DHT22;673;48.098;14.422;2023-02-24T14:36:00;11.70;99.90
1359;DHT22;673;48.098;14.422;2023-02-24T14:38:32;11.80;99.90
1359;DHT22;673;48.098;14.422;2023-02-24T14:41:00;11.80;99.90
1359;DHT22;673;48.098;14.422;2023-02-24T14:43:27;11.80;99.90
1359;DHT22;673;48.098;14.422;2023-02-24T14:45:55;11.70;99.90
1359;DHT22;673;48.098;14.422;2023-02-24T14:48:24;11.80;99.90
1359;DHT22;673;48.098;14.422;2023-02-24T14:50:55;11.80;99.90
1359;DHT22;673;48.098;14.422;2023-02-24T14:53:27;11.60;99.90
1359;DHT22;673;48.098;14.422;2023-02-24T14:55:59;11.50;99.90
1359;DHT22;673;48.098;14.422;2023-02-24T14:58:28;11.60;99.90
1359;DHT22;673;48.098;14.422;2023-02-24T15:01:00;11.70;99.90
1359;DHT22;673;48.098;14.422;2023-02-24T15:03:31;11.80;99.90
1359;DHT22;673;48.098;14.422;2023-02-24T15:06:05;11.70;99.90
1359;DHT22;673;48.098;14.422;2023-02-24T15:08:35;11.70;99.90
1359;DHT22;673;48.098;14.422;2023-02-24T15:11:09;11.50;99.90
1359;DHT22;673;48.098;14.422;2023-02-24T15:13:39;11.60;99.90
1359;DHT22;673;48.098;14.422;2023-02-24T15:16:11;11.40;99.90
1359;DHT22;673;48.098;14.422;2023-02-24T15:18:39;11.30;99.90
1359;DHT22;673;48.098;14.422;2023-02-24T15:21:20;11.20;99.90
1359;DHT22;673;48.098;14.422;2023-02-24T15:23:47;11.10;99.90
1359;DHT22;673;48.098;14.422;2023-02-24T15:26:25;11.00;99.90
1359;DHT22;673;48.098;14.422;2023-02-24T15:28:57;11.00;99.90
1359;DHT22;673;48.098;14.422;2023-02-24T15:31:25;10.80;99.90
1359;DHT22;673;48.098;14.422;2023-02-24T15:33:55;10.80;99.90
1359;DHT22;673;48.098;14.422;2023-02-24T15:36:26;10.80;99.90
1359;DHT22;673;48.098;14.422;2023-02-24T15:38:57;10.70;99.90
1359;DHT22;673;48.098;14.422;2023-02-24T15:41:36;10.60;99.90
1359;DHT22;673;48.098;14.422;2023-02-24T15:44:03;10.70;99.90
1359;DHT22;673;48.098;14.422;2023-02-24T15:46:32;10.70;99.90
1359;DHT22;673;48.098;14.422;2023-02-24T15:48:59;10.70;99.90
1359;DHT22;673;48.098;14.422;2023-02-24T15:51:34;10.80;99.90
1359;DHT22;673;48.098;14.422;2023-02-24T15:54:05;10.70;99.90
1359;DHT22;673;48.098;14.422;2023-02-24T15:56:34;10.70;99.90
1359;DHT22;673;48.098;14.422;2023-02-24T15:59:01;10.60;99.90
1359;DHT22;673;48.098;14.422;2023-02-24T16:01:28;10.50;99.90
1359;DHT22;673;48.098;14.422;2023-02-24T16:03:56;10.50;99.90
1359;DHT22;673;48.098;14.422;2023-02-24T16:06:23;10.50;99.90
1359;DHT22;673;48.098;14.422;2023-02-24T16:08:54;10.50;99.90
1359;DHT22;673;48.098;14.422;2023-02-24T16:11:25;10.30;99.90
1359;DHT22;673;48.098;14.422;2023-02-24T16:13:55;10.30;99.90
1359;DHT22;673;48.098;14.422;2023-02-24T16:16:23;10.20;99.90
1359;DHT22;673;48.098;14.422;2023-02-24T16:18:50;10.20;99.90
1359;DHT22;673;48.098;14.422;2023-02-24T16:21:18;10.10;99.90
1359;DHT22;673;48.098;14.422;2023-02-24T16:23:45;10.10;99.90
1359;DHT22;673;48.098;14.422;2023-02-24T16:26:15;10.00;99.90
1359;DHT22;673;48.098;14.422;2023-02-24T16:28:43;10.10;99.90
1359;DHT22;673;48.098;14.422;2023-02-24T16:31:10;10.00;99.90
1359;DHT22;673;48.098;14.422;2023-02-24T16:33:37;9.80;99.90
1359;DHT22;673;48.098;14.422;2023-02-24T16:36:09;9.80;99.90
1359;DHT22;673;48.098;14.422;2023-02-24T16:38:36;9.80;99.90
1359;DHT22;673;48.098;14.422;2023-02-24T16:41:03;9.70;99.90
1359;DHT22;673;48.098;14.422;2023-02-24T16:43:32;9.60;99.90
1359;DHT22;673;48.098;14.422;2023-02-24T16:46:03;9.60;99.90
1359;DHT22;673;48.098;14.422;2023-02-24T16:48:32;9.60;99.90
1359;DHT22;673;48.098;14.422;2023-02-24T16:51:02;9.50;99.90
1359;DHT22;673;48.098;14.422;2023-02-24T16:53:30;9.50;99.90
1359;DHT22;673;48.098;14.422;2023-02-24T16:55:57;9.50;99.90